Terminal Aerodrome Forecast
Issued by NWS Charleston, WV

Current Version | Previous Version | Graphics & Text | Print | Product List | Glossary On
Versions: 1 2 3 4 5 6 7 8 9 10 11 12 13 14 15 16 17 18 19 20 21 22 23 24 25
000
FTUS41 KRLX 121409 AAA
TAFHTS
TAF AMD
KHTS 121409Z 1214/1312 28008G18KT 5SM -SHSN BKN035
      TEMPO 1214/1217 2SM -SN BKN015
     FM122000 29014G24KT 3SM -SHSN BKN015
     FM130400 29008G19KT P6SM SCT050=

USA.gov is the U.S. government's official web portal to all federal, state and local government web resources and services.